Benet Lake, WI (53102)

11:21 AM CST on January 17, 2017 (GMT -0600)
87th & 184th Ave, Highway D | | Change Station
Active Advisory: Marine Fog Advisory

Elev 730 ft 42.55 °N, 88.03 °W | Updated 4 minutes ago

Overcast
Overcast
36.3 °F
Feels Like 36 °F
N
3.0
Wind Variable Wind from WSW
Gusts 9.0 mph

Today
High -- | Low -- °F
--% Chance of Precip.
Yesterday
High -- | Low -- °F
Precip. -- in
Pressure 29.87 in
Visibility 2.0 miles
Clouds Overcast 400 ft
Windchill 36 °F
Dew Point 36 °F
Humidity 99%
Rainfall 0.23 in
Snow Depth Not available.
7:17 AM 4:47 PM
Waning Gibbous, 71% visible
METAR KENW 171653Z 27009KT 2SM BR OVC004 03/02 A2985 RMK AO2 SLP114 T00280017
Pressure 29.87 in
Visibility 2.0 miles
Clouds Overcast 400 ft
Windchill 36 °F
Dew Point 36 °F
Humidity 99%
Rainfall 0.23 in
Snow Depth Not available.
7:17 AM 4:47 PM
Waning Gibbous, 71% visible
METAR KENW 171653Z 27009KT 2SM BR OVC004 03/02 A2985 RMK AO2 SLP114 T00280017

Get Your Daily Forecast Email!

Thanks for signing up!

Be on the lookout for a verification email in your inbox.

You'll start receiving the daily forecast at 8 AM.

×

10-Day Weather Forecast

Almanac

Astronomy

Jan. 17, 2017 Rise Set
Actual Time
Civil Twilight
Nautical Twilight
Astronomical Twilight
Moon
Length of Visible Light
Length of Day
Tomorrow will be .
, % of the Moon is Illuminated

Today's Extremes

State Highs State Lows

Community

WunderPhotos

Upload Photos

1,962,540 photos uploaded!

WunderBlog® & News

Nearby

Air Quality

  Air Quality AQ Index Pollutant
Not available.

Snow Depth

Station Depth Elevation

Earthquake Activity

City Distance Mag. Time & Date
Minimum magnitude displayed is 2.5.

Coastal Water Temperatures

Place Temperature

Stations

Nearby Weather Stations

Station Location Temp. Windchill Dew Point Humidity Wind Precip. Elev Updated Type
                   

Watches & Warnings

Marine Fog Advisory
Issued: 8:35 AM CST Jan. 17, 2017 – National Weather Service

... Dense fog advisory now in effect until noon CST today...

The dense fog advisory is now in effect until noon CST today.

* Visibility: areas of dense fog producing visibilities of one
mile or less. Visibilities should start to improve by noon.

Precautionary/preparedness actions...

A dense fog advisory means visibilities will frequently be
reduced to less than one mile. Inexperienced mariners...
especially those operating smaller vessels should avoid
navigating in these conditions.



Kurimski
www.Weather.Gov/mkx